Time;durP1;ratioP1;P1;durP2;ratioP2;P2;SDS_P1;SDS_P2;PMS_P1;PMS_P2;Temp;Humidity;BMP_temperature;BMP_pressure;BME280_temperature;BME280_humidity;BME280_pressure;Samples;Min_cycle;Max_cycle;Signal;HPM_P1;HPM_P2
2022/07/10 00:00:30;;;;;;;3.20;1.20;;;;;;;;;;8321832;28;20068;-60
2022/07/10 00:04:30;;;;;;;2.63;1.23;;;;;;;;;;8326250;28;20025;-61
2022/07/10 00:08:31;;;;;;;3.75;1.10;;;;;;;;;;8324813;28;20106;-60
2022/07/10 00:12:31;;;;;;;3.65;1.38;;;;;;;;;;8323707;28;20772;-60
2022/07/10 00:16:31;;;;;;;2.47;1.27;;;;;;;;;;8323461;28;20045;-61
2022/07/10 00:20:32;;;;;;;3.70;1.60;;;;;;;;;;8325187;28;20049;-60
2022/07/10 00:24:32;;;;;;;3.60;1.80;;;;;;;;;;8325721;28;20036;-61
2022/07/10 00:28:33;;;;;;;3.88;1.80;;;;;;;;;;8324706;28;20631;-60
2022/07/10 00:32:34;;;;;;;3.58;1.35;;;;;;;;;;8322474;28;20049;-61
2022/07/10 00:36:34;;;;;;;4.07;1.65;;;;;;;;;;8319648;28;20040;-60
2022/07/10 00:40:34;;;;;;;5.15;1.40;;;;;;;;;;8319371;28;20055;-61
2022/07/10 00:44:35;;;;;;;2.30;1.20;;;;;;;;;;8319957;28;20029;-60
2022/07/10 00:48:35;;;;;;;2.85;1.20;;;;;;;;;;8319516;28;20087;-60
2022/07/10 00:52:38;;;;;;;3.00;1.40;;;;;;;;;;8319829;28;20550;-59
2022/07/10 00:56:39;;;;;;;3.93;1.53;;;;;;;;;;8318714;28;20037;-60
2022/07/10 01:00:39;;;;;;;2.17;1.40;;;;;;;;;;8318175;28;20036;-61
2022/07/10 01:04:39;;;;;;;2.63;1.13;;;;;;;;;;8317341;28;20146;-60
2022/07/10 01:08:40;;;;;;;4.03;1.30;;;;;;;;;;8320302;28;20029;-60
2022/07/10 01:12:40;;;;;;;2.58;1.23;;;;;;;;;;8319562;28;20249;-59
2022/07/10 01:16:40;;;;;;;4.70;1.60;;;;;;;;;;8314091;28;20421;-60
2022/07/10 01:20:40;;;;;;;3.03;1.20;;;;;;;;;;8315328;28;20036;-60
2022/07/10 01:24:40;;;;;;;4.38;1.55;;;;;;;;;;8315442;28;20094;-60
2022/07/10 01:28:41;;;;;;;3.97;1.30;;;;;;;;;;8316804;28;20037;-59
2022/07/10 01:32:41;;;;;;;3.13;1.30;;;;;;;;;;8315502;28;20524;-60
2022/07/10 01:36:41;;;;;;;2.43;1.20;;;;;;;;;;8317961;28;20326;-60
2022/07/10 01:40:41;;;;;;;3.88;1.48;;;;;;;;;;8314700;28;20354;-59
2022/07/10 01:44:42;;;;;;;2.75;1.50;;;;;;;;;;8318100;28;20362;-59
2022/07/10 01:48:42;;;;;;;2.53;1.33;;;;;;;;;;8315805;28;20037;-59
2022/07/10 01:52:42;;;;;;;3.40;1.48;;;;;;;;;;8318205;28;20048;-59
2022/07/10 01:56:43;;;;;;;2.92;1.02;;;;;;;;;;8317241;28;20030;-59
2022/07/10 02:00:44;;;;;;;5.15;1.40;;;;;;;;;;8315936;28;20292;-60
2022/07/10 02:04:45;;;;;;;3.75;1.10;;;;;;;;;;8316362;28;20032;-59
2022/07/10 02:08:45;;;;;;;2.38;1.00;;;;;;;;;;8316639;28;20035;-60
2022/07/10 02:12:45;;;;;;;3.33;1.13;;;;;;;;;;8318117;28;20173;-60
2022/07/10 02:16:45;;;;;;;2.50;1.20;;;;;;;;;;8315961;28;20033;-60
2022/07/10 02:20:46;;;;;;;1.90;1.08;;;;;;;;;;8315052;28;20132;-59
2022/07/10 02:24:46;;;;;;;4.80;1.33;;;;;;;;;;8317346;28;20788;-60
2022/07/10 02:28:46;;;;;;;2.28;1.25;;;;;;;;;;8319430;28;20036;-60
2022/07/10 02:32:46;;;;;;;3.30;1.20;;;;;;;;;;8318437;28;20342;-60
2022/07/10 02:36:47;;;;;;;3.30;1.23;;;;;;;;;;8326481;28;20035;-60
2022/07/10 02:40:47;;;;;;;2.25;1.00;;;;;;;;;;8321877;28;20278;-60
2022/07/10 02:44:47;;;;;;;3.38;1.33;;;;;;;;;;8322857;28;20348;-60
2022/07/10 02:48:47;;;;;;;3.60;1.20;;;;;;;;;;8321694;28;20051;-60
2022/07/10 02:52:47;;;;;;;4.35;1.40;;;;;;;;;;8324672;28;20029;-59
2022/07/10 02:56:48;;;;;;;5.30;1.25;;;;;;;;;;8326503;28;20479;-60
2022/07/10 03:00:48;;;;;;;3.93;1.40;;;;;;;;;;8324640;28;20033;-60
2022/07/10 03:04:48;;;;;;;7.43;1.35;;;;;;;;;;8322992;28;20029;-60
2022/07/10 03:08:49;;;;;;;3.10;1.10;;;;;;;;;;8323365;28;20493;-59
2022/07/10 03:12:49;;;;;;;3.03;1.20;;;;;;;;;;8324158;28;20040;-61
2022/07/10 03:16:49;;;;;;;6.53;1.40;;;;;;;;;;8322732;28;20502;-61
2022/07/10 03:20:49;;;;;;;3.75;1.10;;;;;;;;;;8327336;28;20028;-61
2022/07/10 03:24:49;;;;;;;2.55;1.20;;;;;;;;;;8329261;28;20103;-61
2022/07/10 03:28:49;;;;;;;3.03;1.35;;;;;;;;;;8331453;28;20020;-61
2022/07/10 03:32:50;;;;;;;4.47;1.20;;;;;;;;;;8328739;28;20526;-61
2022/07/10 03:36:51;;;;;;;2.97;1.02;;;;;;;;;;8327900;28;20025;-61
2022/07/10 03:40:51;;;;;;;2.10;1.35;;;;;;;;;;8329001;28;20029;-61
2022/07/10 03:44:51;;;;;;;4.00;1.10;;;;;;;;;;8329675;28;20029;-60
2022/07/10 03:48:51;;;;;;;5.47;1.40;;;;;;;;;;8327664;28;20068;-61
2022/07/10 03:52:52;;;;;;;3.30;1.38;;;;;;;;;;8328354;28;20106;-61
2022/07/10 04:01:11;;;;;;;5.07;1.30;;;;;;;;;;8332990;28;20527;-64
2022/07/10 04:05:11;;;;;;;2.40;1.23;;;;;;;;;;8330488;28;20028;-61
2022/07/10 04:09:11;;;;;;;2.60;1.40;;;;;;;;;;8326206;28;20033;-61
2022/07/10 04:13:11;;;;;;;3.60;1.30;;;;;;;;;;8324846;28;20079;-61
2022/07/10 04:17:11;;;;;;;5.60;1.20;;;;;;;;;;8326238;28;20155;-60
2022/07/10 04:21:13;;;;;;;2.55;1.05;;;;;;;;;;8325097;28;20104;-61
2022/07/10 04:25:13;;;;;;;2.80;1.35;;;;;;;;;;8329458;28;20120;-60
2022/07/10 04:29:13;;;;;;;2.50;1.30;;;;;;;;;;8326996;28;20025;-60
2022/07/10 04:33:14;;;;;;;3.47;1.20;;;;;;;;;;8326811;28;20028;-61
2022/07/10 04:37:14;;;;;;;3.10;1.17;;;;;;;;;;8331389;28;20044;-61
2022/07/10 04:41:14;;;;;;;1.70;1.30;;;;;;;;;;8326735;28;20082;-61
2022/07/10 04:45:15;;;;;;;3.80;1.05;;;;;;;;;;8327025;28;20025;-61
2022/07/10 04:49:15;;;;;;;3.17;1.15;;;;;;;;;;8330622;28;20017;-60
2022/07/10 04:53:15;;;;;;;2.45;1.20;;;;;;;;;;8328455;28;20016;-61
2022/07/10 04:57:15;;;;;;;4.73;1.30;;;;;;;;;;8323210;28;20037;-60
2022/07/10 05:01:16;;;;;;;3.40;1.13;;;;;;;;;;8325780;28;20966;-61
2022/07/10 05:05:16;;;;;;;2.67;1.05;;;;;;;;;;8324866;28;20025;-61
2022/07/10 05:09:19;;;;;;;5.30;1.33;;;;;;;;;;8327816;28;20040;-61
2022/07/10 05:13:19;;;;;;;2.35;0.95;;;;;;;;;;8324074;28;20036;-61
2022/07/10 05:17:19;;;;;;;3.42;1.20;;;;;;;;;;8324965;28;20035;-61
2022/07/10 05:21:20;;;;;;;4.65;1.10;;;;;;;;;;8327706;28;20032;-62
2022/07/10 05:25:20;;;;;;;4.13;1.50;;;;;;;;;;8327308;28;20767;-61
2022/07/10 05:29:21;;;;;;;3.40;1.08;;;;;;;;;;8324137;28;20313;-60
2022/07/10 05:33:21;;;;;;;2.87;1.23;;;;;;;;;;8325985;28;20387;-61
2022/07/10 05:37:21;;;;;;;3.93;1.17;;;;;;;;;;8326405;28;20029;-61
2022/07/10 05:41:21;;;;;;;3.70;1.10;;;;;;;;;;8327803;28;20740;-61
2022/07/10 05:45:22;;;;;;;3.88;1.10;;;;;;;;;;8326699;28;20132;-62
2022/07/10 05:49:22;;;;;;;1.63;1.10;;;;;;;;;;8326878;28;20029;-61
2022/07/10 05:53:22;;;;;;;3.22;1.20;;;;;;;;;;8329527;28;20044;-61
2022/07/10 05:57:24;;;;;;;2.30;1.10;;;;;;;;;;8324582;28;20029;-62
2022/07/10 06:01:25;;;;;;;2.70;1.10;;;;;;;;;;8323379;28;20332;-61
2022/07/10 06:05:26;;;;;;;5.13;1.35;;;;;;;;;;8323956;28;20548;-61
2022/07/10 06:09:26;;;;;;;4.47;1.33;;;;;;;;;;8323363;28;20138;-62
2022/07/10 06:13:26;;;;;;;7.15;1.33;;;;;;;;;;8322825;28;20032;-61
2022/07/10 06:17:26;;;;;;;4.93;0.98;;;;;;;;;;8323546;28;20075;-61
2022/07/10 06:21:26;;;;;;;3.35;1.17;;;;;;;;;;8324034;28;20024;-61
2022/07/10 06:25:27;;;;;;;2.20;0.90;;;;;;;;;;8321088;28;20564;-61
2022/07/10 06:29:27;;;;;;;3.27;1.20;;;;;;;;;;8318697;28;20033;-62
2022/07/10 06:33:27;;;;;;;3.22;1.02;;;;;;;;;;8321060;28;20295;-67
2022/07/10 06:37:28;;;;;;;3.30;1.10;;;;;;;;;;8321211;28;20032;-61
2022/07/10 06:41:28;;;;;;;3.88;1.10;;;;;;;;;;8321168;28;20025;-62
2022/07/10 06:45:28;;;;;;;2.38;0.90;;;;;;;;;;8320842;28;20029;-61
2022/07/10 06:49:29;;;;;;;2.07;0.90;;;;;;;;;;8316729;28;20274;-61
2022/07/10 06:53:29;;;;;;;4.27;0.93;;;;;;;;;;8322310;28;20302;-61
2022/07/10 06:57:29;;;;;;;1.85;0.80;;;;;;;;;;8324621;28;20283;-62
2022/07/10 07:01:29;;;;;;;1.20;0.60;;;;;;;;;;8318610;28;20508;-61
2022/07/10 07:05:30;;;;;;;2.50;0.90;;;;;;;;;;8322463;28;20306;-61
2022/07/10 07:09:30;;;;;;;1.63;0.70;;;;;;;;;;8322841;28;20037;-61
2022/07/10 07:13:30;;;;;;;1.85;0.90;;;;;;;;;;8315996;28;20468;-61
2022/07/10 07:17:33;;;;;;;2.57;1.00;;;;;;;;;;8315071;28;20060;-61
2022/07/10 07:25:52;;;;;;;2.28;0.88;;;;;;;;;;8323399;28;20040;-61
2022/07/10 07:29:52;;;;;;;3.13;0.93;;;;;;;;;;8322247;28;20025;-61
2022/07/10 07:33:53;;;;;;;2.38;0.90;;;;;;;;;;8315510;28;20053;-62
2022/07/10 07:37:53;;;;;;;3.53;1.05;;;;;;;;;;8319960;28;20039;-61
2022/07/10 07:41:53;;;;;;;2.03;0.93;;;;;;;;;;8320872;28;20025;-61
2022/07/10 07:45:53;;;;;;;4.20;1.20;;;;;;;;;;8321291;28;20028;-61
2022/07/10 07:49:54;;;;;;;1.98;0.90;;;;;;;;;;8319352;28;20396;-61
2022/07/10 07:53:54;;;;;;;3.97;1.08;;;;;;;;;;8323763;28;20029;-62
2022/07/10 07:57:55;;;;;;;2.42;0.95;;;;;;;;;;8315583;28;20037;-60
2022/07/10 08:01:55;;;;;;;1.45;0.75;;;;;;;;;;8318954;28;20033;-60
2022/07/10 08:05:55;;;;;;;2.17;1.00;;;;;;;;;;8328436;28;20448;-60
2022/07/10 08:09:55;;;;;;;2.37;0.90;;;;;;;;;;8326162;28;20033;-60
2022/07/10 08:13:56;;;;;;;2.13;0.80;;;;;;;;;;8329577;28;20036;-59
2022/07/10 08:17:57;;;;;;;1.90;1.02;;;;;;;;;;8326435;28;20037;-60
2022/07/10 08:21:57;;;;;;;4.72;1.20;;;;;;;;;;8327485;28;20017;-60
2022/07/10 08:25:57;;;;;;;3.30;1.07;;;;;;;;;;8329012;28;20025;-60
2022/07/10 08:29:58;;;;;;;2.85;1.13;;;;;;;;;;8329688;28;20474;-61
2022/07/10 08:33:58;;;;;;;1.75;0.90;;;;;;;;;;8328086;28;20082;-61
2022/07/10 08:37:58;;;;;;;1.52;0.73;;;;;;;;;;8330574;28;20147;-65
2022/07/10 08:41:59;;;;;;;2.87;1.00;;;;;;;;;;8329928;28;20012;-61
2022/07/10 08:46:00;;;;;;;2.72;0.90;;;;;;;;;;8326388;28;20321;-60
2022/07/10 08:50:01;;;;;;;3.42;0.90;;;;;;;;;;8327380;28;20017;-60
2022/07/10 08:54:01;;;;;;;2.03;0.90;;;;;;;;;;8331727;28;20498;-61
2022/07/10 08:58:02;;;;;;;2.13;0.80;;;;;;;;;;8327487;28;20025;-61
2022/07/10 09:02:02;;;;;;;1.52;0.90;;;;;;;;;;8327636;28;21180;-61
2022/07/10 09:06:04;;;;;;;1.70;0.85;;;;;;;;;;8329123;28;20116;-61
2022/07/10 09:10:11;;;;;;;1.27;0.77;;;;;;;;;;8326307;28;20034;-60
2022/07/10 09:14:16;;;;;;;2.50;0.88;;;;;;;;;;8326471;28;20422;-61
2022/07/10 09:18:18;;;;;;;1.70;0.90;;;;;;;;;;8323652;28;20048;-61
2022/07/10 09:22:21;;;;;;;1.97;1.00;;;;;;;;;;8328820;28;20044;-60
2022/07/10 09:26:21;;;;;;;2.92;0.90;;;;;;;;;;8326082;28;20205;-60
2022/07/10 09:30:38;;;;;;;4.35;1.10;;;;;;;;;;8326406;28;20493;-61
2022/07/10 09:34:39;;;;;;;1.92;1.00;;;;;;;;;;8328053;28;20029;-61
2022/07/10 09:38:42;;;;;;;2.70;0.88;;;;;;;;;;8327422;28;20989;-61
2022/07/10 09:42:43;;;;;;;2.38;1.00;;;;;;;;;;8326028;28;20716;-61
2022/07/10 09:46:43;;;;;;;1.40;0.80;;;;;;;;;;8325966;28;20945;-61
2022/07/10 09:50:43;;;;;;;3.13;1.20;;;;;;;;;;8322516;28;20033;-60
2022/07/10 09:54:44;;;;;;;3.33;1.00;;;;;;;;;;8322687;28;20041;-60
2022/07/10 09:58:45;;;;;;;2.30;0.95;;;;;;;;;;8325772;28;20112;-60
2022/07/10 10:02:46;;;;;;;2.88;1.15;;;;;;;;;;8319117;28;20067;-61
2022/07/10 10:06:50;;;;;;;3.28;1.55;;;;;;;;;;8322216;28;20072;-61
2022/07/10 10:10:51;;;;;;;1.58;1.10;;;;;;;;;;8315271;28;20504;-61
2022/07/10 10:14:52;;;;;;;3.47;1.25;;;;;;;;;;8319517;28;20639;-60
2022/07/10 10:23:20;;;;;;;5.20;1.23;;;;;;;;;;8318208;28;20378;-61
2022/07/10 10:27:20;;;;;;;1.98;1.10;;;;;;;;;;8316343;28;20138;-61
2022/07/10 10:31:21;;;;;;;2.80;1.00;;;;;;;;;;8314245;28;20076;-61
2022/07/10 10:35:41;;;;;;;2.30;1.05;;;;;;;;;;8316046;28;20172;-60
2022/07/10 10:39:54;;;;;;;2.10;1.00;;;;;;;;;;8317250;28;20065;-61
2022/07/10 10:44:10;;;;;;;2.95;1.25;;;;;;;;;;8319970;28;20500;-60
2022/07/10 10:48:12;;;;;;;2.42;1.08;;;;;;;;;;8316581;28;20529;-61
2022/07/10 10:52:15;;;;;;;2.88;1.08;;;;;;;;;;8317713;28;20110;-61
2022/07/10 10:56:15;;;;;;;;;;;;;;;;;;8316742;28;20395;-60
2022/07/10 11:00:34;;;;;;;5.40;1.30;;;;;;;;;;8317699;28;19913;-60
2022/07/10 11:04:34;;;;;;;2.75;1.08;;;;;;;;;;8314904;28;20107;-60
2022/07/10 11:08:35;;;;;;;2.20;1.10;;;;;;;;;;8317284;28;20033;-60
2022/07/10 11:12:55;;;;;;;2.05;1.10;;;;;;;;;;8318209;28;20041;-59
2022/07/10 11:16:55;;;;;;;3.17;1.00;;;;;;;;;;8317512;28;20087;-60
2022/07/10 11:20:56;;;;;;;4.27;1.30;;;;;;;;;;8319916;28;20029;-61
2022/07/10 11:25:15;;;;;;;2.10;1.10;;;;;;;;;;8323303;28;20028;-60
2022/07/10 11:29:17;;;;;;;3.33;1.40;;;;;;;;;;8318603;28;20656;-61
2022/07/10 11:33:20;;;;;;;2.25;1.02;;;;;;;;;;8322261;28;20045;-61
2022/07/10 11:37:20;;;;;;;1.50;0.95;;;;;;;;;;8320935;28;20033;-61
2022/07/10 11:41:23;;;;;;;2.05;1.10;;;;;;;;;;8323477;28;20058;-60
2022/07/10 11:45:25;;;;;;;1.80;0.93;;;;;;;;;;8327996;28;20040;-61
2022/07/10 11:49:25;;;;;;;2.88;1.10;;;;;;;;;;8327579;28;20637;-61
2022/07/10 11:53:25;;;;;;;1.55;0.90;;;;;;;;;;8329053;28;20026;-60
2022/07/10 11:57:27;;;;;;;3.58;0.98;;;;;;;;;;8330130;28;20022;-62
2022/07/10 12:01:28;;;;;;;2.38;1.20;;;;;;;;;;8328263;28;20045;-62
2022/07/10 12:05:34;;;;;;;3.25;1.10;;;;;;;;;;8330526;28;20067;-63
2022/07/10 12:09:38;;;;;;;2.47;1.10;;;;;;;;;;8328333;28;20072;-61
2022/07/10 12:13:38;;;;;;;4.20;1.00;;;;;;;;;;8330269;28;20075;-61
2022/07/10 12:17:49;;;;;;;1.08;0.73;;;;;;;;;;8332199;28;20048;-63
2022/07/10 12:21:50;;;;;;;6.55;1.00;;;;;;;;;;8330023;28;20032;-60
2022/07/10 12:25:50;;;;;;;2.17;0.90;;;;;;;;;;8325864;28;20047;-61
2022/07/10 12:29:59;;;;;;;1.80;1.00;;;;;;;;;;8329841;28;20160;-61
2022/07/10 12:34:03;;;;;;;5.20;1.20;;;;;;;;;;8324106;28;20064;-60
2022/07/10 12:38:03;;;;;;;2.72;1.15;;;;;;;;;;8325069;28;20031;-61
2022/07/10 12:42:05;;;;;;;2.05;0.80;;;;;;;;;;8325185;28;20049;-65
2022/07/10 12:46:15;;;;;;;2.45;0.77;;;;;;;;;;8322613;28;20044;-62
2022/07/10 12:50:19;;;;;;;1.27;0.80;;;;;;;;;;8325580;28;20028;-61
2022/07/10 12:54:36;;;;;;;2.33;0.85;;;;;;;;;;8323498;28;20033;-61
2022/07/10 12:58:36;;;;;;;0.98;0.75;;;;;;;;;;8323638;28;20071;-61
2022/07/10 13:02:37;;;;;;;1.65;0.80;;;;;;;;;;8324666;28;20124;-61
2022/07/10 13:06:38;;;;;;;2.60;0.82;;;;;;;;;;8330896;28;20056;-61
2022/07/10 13:10:40;;;;;;;0.90;0.70;;;;;;;;;;8323109;28;20567;-62
2022/07/10 13:14:40;;;;;;;1.05;0.80;;;;;;;;;;8324150;28;20032;-61
2022/07/10 13:18:42;;;;;;;1.80;0.80;;;;;;;;;;8321788;28;20135;-62
2022/07/10 13:22:42;;;;;;;2.22;0.95;;;;;;;;;;8326250;28;20126;-61
2022/07/10 13:26:43;;;;;;;1.70;0.93;;;;;;;;;;8324052;28;20033;-61
2022/07/10 13:30:43;;;;;;;1.58;0.70;;;;;;;;;;8327457;28;20263;-62
2022/07/10 13:34:43;;;;;;;2.20;0.88;;;;;;;;;;8325474;28;20079;-60
2022/07/10 13:38:44;;;;;;;2.27;1.17;;;;;;;;;;8327969;28;20099;-61
2022/07/10 13:42:44;;;;;;;1.55;0.80;;;;;;;;;;8325663;28;20067;-61
2022/07/10 13:46:44;;;;;;;1.52;0.90;;;;;;;;;;8324256;28;20041;-60
2022/07/10 13:50:49;;;;;;;2.25;0.80;;;;;;;;;;8325125;28;20033;-62
2022/07/10 13:54:49;;;;;;;1.65;0.82;;;;;;;;;;8324385;28;20096;-62
2022/07/10 13:58:49;;;;;;;2.20;0.90;;;;;;;;;;8326966;28;20104;-60
2022/07/10 14:02:50;;;;;;;1.48;0.80;;;;;;;;;;8318063;28;20032;-61
2022/07/10 14:06:50;;;;;;;1.05;0.63;;;;;;;;;;8323096;28;20032;-60
2022/07/10 14:10:51;;;;;;;1.85;0.60;;;;;;;;;;8323356;28;20942;-62
2022/07/10 14:14:51;;;;;;;1.90;0.70;;;;;;;;;;8323021;28;20024;-61
2022/07/10 14:18:51;;;;;;;1.63;0.77;;;;;;;;;;8326211;28;20281;-62
2022/07/10 14:22:51;;;;;;;1.48;0.77;;;;;;;;;;8324546;28;20135;-61
2022/07/10 14:26:52;;;;;;;1.85;0.70;;;;;;;;;;8325443;28;20033;-61
2022/07/10 14:30:53;;;;;;;0.60;0.60;;;;;;;;;;8323667;28;20487;-61
2022/07/10 14:34:54;;;;;;;1.55;0.60;;;;;;;;;;8325962;28;20512;-60
2022/07/10 14:38:55;;;;;;;1.92;0.88;;;;;;;;;;8320161;28;20110;-61
2022/07/10 14:42:56;;;;;;;2.10;0.75;;;;;;;;;;8321032;28;20028;-61
2022/07/10 14:46:56;;;;;;;1.00;0.70;;;;;;;;;;8324676;28;20056;-61
2022/07/10 14:50:59;;;;;;;1.35;0.75;;;;;;;;;;8322096;28;20657;-61
2022/07/10 14:55:02;;;;;;;1.00;0.65;;;;;;;;;;8325721;28;20303;-60
2022/07/10 14:59:02;;;;;;;3.47;0.70;;;;;;;;;;8325914;28;20449;-60
2022/07/10 15:03:02;;;;;;;0.75;0.70;;;;;;;;;;8319930;28;20197;-61
2022/07/10 15:07:02;;;;;;;0.95;0.65;;;;;;;;;;8325647;28;20025;-60
2022/07/10 15:11:04;;;;;;;2.17;0.60;;;;;;;;;;8323276;28;20040;-61
2022/07/10 15:15:07;;;;;;;0.77;0.55;;;;;;;;;;8324012;28;20060;-61
2022/07/10 15:19:10;;;;;;;0.98;0.50;;;;;;;;;;8332109;28;20112;-61
2022/07/10 15:23:10;;;;;;;0.40;0.40;;;;;;;;;;8330681;28;20008;-61
2022/07/10 15:27:10;;;;;;;0.73;0.60;;;;;;;;;;8325760;28;20624;-62
2022/07/10 15:31:10;;;;;;;0.90;0.60;;;;;;;;;;8327655;28;20178;-60
2022/07/10 15:35:11;;;;;;;1.65;0.65;;;;;;;;;;8332981;28;21068;-61
2022/07/10 15:39:13;;;;;;;0.47;0.47;;;;;;;;;;8332300;28;20024;-65
2022/07/10 15:43:13;;;;;;;0.77;0.50;;;;;;;;;;8329038;28;20767;-62
2022/07/10 15:47:13;;;;;;;1.05;0.65;;;;;;;;;;8328916;28;20025;-63
2022/07/10 15:51:14;;;;;;;0.73;0.73;;;;;;;;;;8329851;28;20078;-61
2022/07/10 15:55:15;;;;;;;1.20;0.82;;;;;;;;;;8329629;28;20366;-61
2022/07/10 15:59:15;;;;;;;0.80;0.77;;;;;;;;;;8332316;28;20018;-60
2022/07/10 16:03:15;;;;;;;1.10;1.00;;;;;;;;;;8328408;28;20122;-60
2022/07/10 16:07:15;;;;;;;0.90;0.90;;;;;;;;;;8327727;28;20369;-61
2022/07/10 16:11:17;;;;;;;2.90;1.20;;;;;;;;;;8329856;28;20017;-62
2022/07/10 16:15:17;;;;;;;1.67;1.20;;;;;;;;;;8330524;28;20040;-61
2022/07/10 16:19:18;;;;;;;1.60;1.30;;;;;;;;;;8329442;28;20075;-61
2022/07/10 16:23:18;;;;;;;1.67;1.30;;;;;;;;;;8330849;28;20024;-62
2022/07/10 16:27:18;;;;;;;1.63;1.52;;;;;;;;;;8329428;28;20671;-61
2022/07/10 16:31:18;;;;;;;1.30;1.30;;;;;;;;;;8331517;28;20096;-61
2022/07/10 16:35:19;;;;;;;1.40;1.30;;;;;;;;;;8331370;28;20063;-61
2022/07/10 16:39:19;;;;;;;1.83;1.60;;;;;;;;;;8328413;28;20078;-62
2022/07/10 16:43:19;;;;;;;1.67;1.58;;;;;;;;;;8328802;28;20021;-60
2022/07/10 16:47:19;;;;;;;3.08;1.80;;;;;;;;;;8329311;28;20045;-61
2022/07/10 16:51:22;;;;;;;2.65;1.40;;;;;;;;;;8326681;28;20096;-61
2022/07/10 16:55:22;;;;;;;11.47;1.60;;;;;;;;;;8329829;28;20032;-61
2022/07/10 16:59:22;;;;;;;1.70;1.60;;;;;;;;;;8327842;28;20031;-61
2022/07/10 17:03:22;;;;;;;1.63;1.40;;;;;;;;;;8326155;28;20106;-62
2022/07/10 17:07:23;;;;;;;1.83;1.50;;;;;;;;;;8324971;28;20056;-62
2022/07/10 17:11:24;;;;;;;2.08;1.35;;;;;;;;;;8325812;28;20025;-61
2022/07/10 17:15:24;;;;;;;1.80;1.40;;;;;;;;;;8324651;28;20047;-61
2022/07/10 17:19:25;;;;;;;1.40;1.30;;;;;;;;;;8323052;28;20300;-61
2022/07/10 17:23:25;;;;;;;1.60;1.50;;;;;;;;;;8325291;28;20029;-62
2022/07/10 17:27:26;;;;;;;1.35;1.20;;;;;;;;;;8325125;28;20485;-61
2022/07/10 17:31:26;;;;;;;2.20;1.25;;;;;;;;;;8324355;28;20052;-61
2022/07/10 17:35:26;;;;;;;1.40;1.30;;;;;;;;;;8323624;28;20020;-61
2022/07/10 17:39:26;;;;;;;2.70;1.35;;;;;;;;;;8322492;28;20091;-61
2022/07/10 17:43:26;;;;;;;1.50;1.40;;;;;;;;;;8325741;28;20036;-61
2022/07/10 17:47:26;;;;;;;2.22;1.40;;;;;;;;;;8325470;28;20037;-61
2022/07/10 17:51:27;;;;;;;1.65;1.38;;;;;;;;;;8325660;28;20013;-62
2022/07/10 17:55:27;;;;;;;2.90;1.60;;;;;;;;;;8323851;28;20020;-61
2022/07/10 17:59:27;;;;;;;1.42;1.33;;;;;;;;;;8324237;28;20021;-62
2022/07/10 18:03:28;;;;;;;1.67;1.27;;;;;;;;;;8320180;28;20035;-61
2022/07/10 18:07:30;;;;;;;1.40;1.30;;;;;;;;;;8322173;28;20036;-61
2022/07/10 18:11:30;;;;;;;1.63;1.30;;;;;;;;;;8321429;28;20025;-63
2022/07/10 18:15:33;;;;;;;1.75;1.40;;;;;;;;;;8320990;28;20053;-62
2022/07/10 18:19:33;;;;;;;;;;;;;;;;;;8322422;28;20597;-62
2022/07/10 18:23:34;;;;;;;1.40;1.30;;;;;;;;;;8322456;28;19919;-62
2022/07/10 18:27:34;;;;;;;2.45;1.40;;;;;;;;;;8321099;28;20144;-62
2022/07/10 18:31:34;;;;;;;2.37;1.43;;;;;;;;;;8317205;28;20029;-63
2022/07/10 18:35:35;;;;;;;2.20;1.30;;;;;;;;;;8317662;28;20131;-61
2022/07/10 18:39:35;;;;;;;1.20;1.20;;;;;;;;;;8320396;28;20024;-62
2022/07/10 18:43:36;;;;;;;1.60;1.33;;;;;;;;;;8321942;28;20884;-61
2022/07/10 18:47:36;;;;;;;1.35;1.20;;;;;;;;;;8318574;28;20029;-61
2022/07/10 18:51:36;;;;;;;1.45;1.30;;;;;;;;;;8322756;28;20839;-62
2022/07/10 18:55:36;;;;;;;3.00;1.30;;;;;;;;;;8321320;28;20043;-62
2022/07/10 18:59:37;;;;;;;3.47;1.27;;;;;;;;;;8322380;28;20132;-62
2022/07/10 19:03:37;;;;;;;1.27;1.10;;;;;;;;;;8317953;28;20371;-61
2022/07/10 19:07:37;;;;;;;3.40;1.40;;;;;;;;;;8323487;28;20029;-60
2022/07/10 19:11:37;;;;;;;3.37;1.40;;;;;;;;;;8323229;28;20016;-61
2022/07/10 19:15:38;;;;;;;3.28;1.50;;;;;;;;;;8315933;28;20743;-62
2022/07/10 19:19:38;;;;;;;1.50;1.40;;;;;;;;;;8321369;28;20070;-61
2022/07/10 19:23:38;;;;;;;2.53;1.20;;;;;;;;;;8315967;28;20025;-62
2022/07/10 19:27:38;;;;;;;2.60;1.40;;;;;;;;;;8320565;28;20119;-61
2022/07/10 19:31:38;;;;;;;1.65;1.15;;;;;;;;;;8317936;28;20040;-61
2022/07/10 19:35:39;;;;;;;2.58;1.45;;;;;;;;;;8319391;28;20082;-61
2022/07/10 19:39:39;;;;;;;1.48;1.20;;;;;;;;;;8315918;28;20663;-62
2022/07/10 19:43:39;;;;;;;1.63;1.30;;;;;;;;;;8317400;28;20026;-60
2022/07/10 19:47:40;;;;;;;1.58;1.10;;;;;;;;;;8319214;28;20454;-61
2022/07/10 19:51:40;;;;;;;2.33;1.30;;;;;;;;;;8321238;28;20028;-62
2022/07/10 19:55:40;;;;;;;2.33;1.30;;;;;;;;;;8318665;28;20060;-61
2022/07/10 19:59:41;;;;;;;1.80;1.35;;;;;;;;;;8318083;28;20306;-61
2022/07/10 20:03:41;;;;;;;1.67;1.38;;;;;;;;;;8322389;28;20088;-61
2022/07/10 20:07:41;;;;;;;1.70;1.30;;;;;;;;;;8325920;28;20569;-61
2022/07/10 20:11:41;;;;;;;1.48;1.10;;;;;;;;;;8322194;28;20037;-61
2022/07/10 20:15:42;;;;;;;1.40;1.10;;;;;;;;;;8324994;28;21033;-61
2022/07/10 20:19:42;;;;;;;1.90;1.20;;;;;;;;;;8321374;28;20550;-61
2022/07/10 20:23:42;;;;;;;2.15;1.33;;;;;;;;;;8326905;28;20227;-61
2022/07/10 20:27:43;;;;;;;2.00;1.27;;;;;;;;;;8325900;28;20032;-62
2022/07/10 20:31:43;;;;;;;2.90;1.20;;;;;;;;;;8325781;28;20037;-61
2022/07/10 20:35:43;;;;;;;3.55;1.40;;;;;;;;;;8324832;28;20017;-61
2022/07/10 20:39:43;;;;;;;1.48;1.27;;;;;;;;;;8325198;28;20288;-61
2022/07/10 20:43:44;;;;;;;2.83;1.20;;;;;;;;;;8325034;28;20064;-61
2022/07/10 20:47:44;;;;;;;1.23;1.02;;;;;;;;;;8323767;28;20144;-62
2022/07/10 20:51:44;;;;;;;3.03;1.30;;;;;;;;;;8322659;28;20017;-61
2022/07/10 20:55:45;;;;;;;1.10;1.10;;;;;;;;;;8328651;28;20634;-62
2022/07/10 20:59:45;;;;;;;1.80;1.15;;;;;;;;;;8322904;28;20082;-60
2022/07/10 21:03:45;;;;;;;1.10;1.00;;;;;;;;;;8322307;28;20044;-61
2022/07/10 21:07:45;;;;;;;2.77;1.20;;;;;;;;;;8328679;28;20634;-61
2022/07/10 21:11:46;;;;;;;2.13;1.10;;;;;;;;;;8323103;28;20124;-60
2022/07/10 21:15:46;;;;;;;1.60;1.20;;;;;;;;;;8324943;28;20033;-61
2022/07/10 21:19:46;;;;;;;2.05;1.30;;;;;;;;;;8323522;28;20036;-61
2022/07/10 21:23:47;;;;;;;4.38;1.25;;;;;;;;;;8322193;28;20126;-61
2022/07/10 21:27:47;;;;;;;5.20;1.30;;;;;;;;;;8326736;28;20025;-61
2022/07/10 21:31:47;;;;;;;1.10;1.00;;;;;;;;;;8320671;28;20355;-61
2022/07/10 21:35:47;;;;;;;1.10;1.00;;;;;;;;;;8324376;28;20036;-60
2022/07/10 21:39:47;;;;;;;1.20;0.93;;;;;;;;;;8323899;28;20024;-60
2022/07/10 21:43:48;;;;;;;2.95;1.20;;;;;;;;;;8321532;28;20028;-64
2022/07/10 21:47:48;;;;;;;1.42;1.10;;;;;;;;;;8323420;28;20029;-61
2022/07/10 21:51:49;;;;;;;2.33;1.10;;;;;;;;;;8324912;28;20099;-61
2022/07/10 21:55:49;;;;;;;1.55;1.10;;;;;;;;;;8321073;28;20032;-60
2022/07/10 21:59:50;;;;;;;1.48;1.20;;;;;;;;;;8326536;28;20028;-61
2022/07/10 22:03:50;;;;;;;1.77;1.23;;;;;;;;;;8324359;28;20406;-61
2022/07/10 22:07:50;;;;;;;1.40;1.10;;;;;;;;;;8326908;28;20028;-61
2022/07/10 22:11:50;;;;;;;2.78;1.40;;;;;;;;;;8323272;28;20033;-61
2022/07/10 22:15:50;;;;;;;1.77;1.20;;;;;;;;;;8325433;28;20043;-61
2022/07/10 22:19:51;;;;;;;3.37;1.00;;;;;;;;;;8323066;28;20094;-60
2022/07/10 22:23:52;;;;;;;2.28;1.10;;;;;;;;;;8323559;28;20325;-61
2022/07/10 22:27:53;;;;;;;1.75;1.30;;;;;;;;;;8322764;28;20074;-62
2022/07/10 22:31:53;;;;;;;2.25;1.00;;;;;;;;;;8322385;28;20041;-60
2022/07/10 22:35:53;;;;;;;1.58;1.13;;;;;;;;;;8322873;28;20029;-61
2022/07/10 22:39:53;;;;;;;1.73;1.10;;;;;;;;;;8321711;28;20017;-61
2022/07/10 22:43:54;;;;;;;2.17;1.10;;;;;;;;;;8322416;28;20550;-61
2022/07/10 22:47:54;;;;;;;1.85;1.00;;;;;;;;;;8324683;28;20489;-61
2022/07/10 22:51:56;;;;;;;2.35;1.17;;;;;;;;;;8325379;28;20028;-61
2022/07/10 22:55:56;;;;;;;1.88;1.02;;;;;;;;;;8324894;28;21594;-61
2022/07/10 22:59:56;;;;;;;2.63;1.00;;;;;;;;;;8325181;28;20029;-61
2022/07/10 23:03:57;;;;;;;2.22;1.02;;;;;;;;;;8321928;28;20282;-61
2022/07/10 23:07:57;;;;;;;2.28;1.02;;;;;;;;;;8322620;28;20033;-60
2022/07/10 23:11:57;;;;;;;1.57;1.00;;;;;;;;;;8321882;28;20078;-61
2022/07/10 23:15:58;;;;;;;2.50;1.20;;;;;;;;;;8324423;28;21228;-60
2022/07/10 23:19:58;;;;;;;2.58;1.00;;;;;;;;;;8324105;28;20024;-61
2022/07/10 23:23:59;;;;;;;2.25;1.00;;;;;;;;;;8325826;28;20115;-62
2022/07/10 23:27:59;;;;;;;2.22;1.20;;;;;;;;;;8323976;28;20028;-61
2022/07/10 23:31:59;;;;;;;1.60;1.15;;;;;;;;;;8322886;28;20029;-61
2022/07/10 23:35:59;;;;;;;1.63;1.10;;;;;;;;;;8325603;28;20981;-61
2022/07/10 23:39:59;;;;;;;2.17;1.30;;;;;;;;;;8325902;28;21093;-65
2022/07/10 23:44:00;;;;;;;1.13;1.03;;;;;;;;;;8329386;28;20362;-61
2022/07/10 23:48:00;;;;;;;4.03;1.00;;;;;;;;;;8330491;28;20025;-62
2022/07/10 23:52:00;;;;;;;4.15;1.20;;;;;;;;;;8328382;28;20117;-61
2022/07/10 23:56:00;;;;;;;2.15;1.20;;;;;;;;;;8326925;28;20416;-61
